Time;durP1;ratioP1;P1;durP2;ratioP2;P2;SDS_P1;SDS_P2;PMS_P1;PMS_P2;Temp;Humidity;BMP_temperature;BMP_pressure;BME280_temperature;BME280_humidity;BME280_pressure;Samples;Min_cycle;Max_cycle;Signal;HPM_P1;HPM_P2
2022/06/06 00:01:13;;;;;;;74.75;40.03;;;15.90;96.00;;;;;;5049265;28;20020;-75
2022/06/06 00:03:40;;;;;;;72.95;39.50;;;15.90;96.10;;;;;;5052882;28;20071;-76
2022/06/06 00:06:14;;;;;;;78.57;42.10;;;15.80;96.00;;;;;;5052519;28;20032;-74
2022/06/06 00:08:40;;;;;;;82.72;44.70;;;15.80;96.00;;;;;;5052900;28;20021;-76
2022/06/06 00:11:09;;;;;;;68.18;38.40;;;15.80;96.30;;;;;;5052703;28;20060;-77
2022/06/06 00:13:37;;;;;;;83.03;45.50;;;15.80;96.10;;;;;;5052523;28;20024;-76
2022/06/06 00:16:03;;;;;;;80.97;45.95;;;15.70;96.30;;;;;;5052823;28;20611;-76
2022/06/06 00:18:29;;;;;;;62.60;36.13;;;15.70;96.40;;;;;;5053266;28;20108;-77
2022/06/06 00:20:55;;;;;;;77.35;41.60;;;15.70;95.90;;;;;;5052496;28;20025;-76
2022/06/06 00:23:21;;;;;;;64.25;38.65;;;15.60;96.20;;;;;;5051118;28;20035;-74
2022/06/06 00:25:47;;;;;;;61.55;36.63;;;15.60;96.10;;;;;;5052853;28;20017;-76
2022/06/06 00:28:13;;;;;;;62.13;38.53;;;15.70;96.10;;;;;;5052093;28;20107;-77
2022/06/06 00:30:38;;;;;;;71.22;38.92;;;15.70;95.90;;;;;;5053770;28;20029;-77
2022/06/06 00:35:48;;;;;;;63.22;37.35;;;15.70;95.90;;;;;;5032826;28;20106;-75
2022/06/06 00:38:14;;;;;;;50.45;31.75;;;15.70;95.80;;;;;;5048425;28;20471;-76
2022/06/06 00:40:39;;;;;;;69.95;40.60;;;15.70;96.00;;;;;;5052612;28;20033;-77
2022/06/06 00:43:05;;;;;;;58.83;35.90;;;15.70;96.00;;;;;;5050170;28;20037;-77
2022/06/06 00:45:38;;;;;;;52.38;30.73;;;15.70;95.70;;;;;;5051723;28;20033;-75
2022/06/06 00:48:13;;;;;;;48.30;30.83;;;15.60;95.90;;;;;;5052316;28;20041;-75
2022/06/06 00:51:06;;;;;;;44.65;28.63;;;15.50;96.10;;;;;;5053163;28;20057;-75
2022/06/06 00:53:44;;;;;;;36.50;23.00;;;15.60;95.60;;;;;;5052042;28;20020;-76
2022/06/06 00:56:22;;;;;;;53.88;31.08;;;15.70;95.50;;;;;;5052376;28;20111;-75
2022/06/06 00:58:53;;;;;;;54.33;31.60;;;15.60;96.00;;;;;;5051838;28;20032;-77
2022/06/06 01:01:20;;;;;;;46.00;27.63;;;15.60;96.10;;;;;;5051128;28;20029;-75
2022/06/06 01:03:46;;;;;;;40.13;24.85;;;15.60;95.90;;;;;;5051780;28;20031;-74
2022/06/06 01:06:15;;;;;;;44.70;27.42;;;15.70;95.70;;;;;;5051373;28;20048;-75
2022/06/06 01:08:43;;;;;;;37.70;24.00;;;15.70;95.50;;;;;;5050979;28;20082;-75
2022/06/06 01:11:09;;;;;;;27.98;17.85;;;15.70;95.60;;;;;;5051015;28;20028;-76
2022/06/06 01:13:37;;;;;;;42.65;25.80;;;15.70;95.00;;;;;;5051598;28;20099;-77
2022/06/06 01:16:22;;;;;;;39.55;23.20;;;15.70;95.50;;;;;;5053660;28;20029;-78
2022/06/06 01:19:13;;;;;;;41.08;22.38;;;15.60;95.50;;;;;;5050641;28;20033;-78
2022/06/06 01:21:57;;;;;;;;;;;15.70;95.90;;;;;;5050510;28;20467;-76
2022/06/06 01:25:10;;;;;;;52.28;29.40;;;15.70;95.70;;;;;;5050795;28;19970;-77
2022/06/06 01:27:58;;;;;;;51.63;28.02;;;15.80;95.50;;;;;;5037452;28;20064;-77
2022/06/06 01:30:40;;;;;;;53.20;28.13;;;15.80;95.80;;;;;;5049079;28;20023;-76
2022/06/06 01:33:11;;;;;;;46.67;25.02;;;15.80;95.80;;;;;;5051301;28;20021;-76
2022/06/06 01:35:44;;;;;;;54.10;27.52;;;15.80;95.70;;;;;;5050601;28;20084;-78
2022/06/06 01:38:15;;;;;;;46.25;25.02;;;15.80;95.60;;;;;;5050930;28;20052;-75
2022/06/06 01:41:06;;;;;;;47.58;27.92;;;15.80;95.90;;;;;;5050826;28;20510;-77
2022/06/06 01:43:45;;;;;;;40.70;23.15;;;15.80;95.90;;;;;;5050589;28;20518;-76
2022/06/06 01:46:33;;;;;;;41.83;24.63;;;15.70;95.70;;;;;;5049870;28;20024;-77
2022/06/06 01:49:00;;;;;;;41.50;22.92;;;15.70;95.60;;;;;;5050561;28;20021;-76
2022/06/06 01:51:29;;;;;;;41.08;22.95;;;15.80;95.40;;;;;;5050675;28;20017;-76
2022/06/06 01:53:55;;;;;;;47.77;25.10;;;15.80;95.30;;;;;;5052538;28;20471;-78
2022/06/06 01:56:27;;;;;;;45.03;24.73;;;15.80;95.50;;;;;;5051726;28;20039;-76
2022/06/06 01:58:53;;;;;;;46.35;26.13;;;15.80;95.60;;;;;;5037553;28;20033;-75
2022/06/06 02:01:19;;;;;;;40.20;22.42;;;15.70;95.50;;;;;;5049817;28;20085;-75
2022/06/06 02:03:45;;;;;;;43.33;24.33;;;15.70;95.50;;;;;;5055647;28;20085;-76
2022/06/06 02:06:10;;;;;;;44.90;26.10;;;15.70;95.60;;;;;;5061859;28;20024;-75
2022/06/06 02:08:36;;;;;;;47.30;24.65;;;15.70;95.70;;;;;;5057925;28;20069;-76
2022/06/06 02:11:03;;;;;;;50.92;26.65;;;15.70;95.70;;;;;;5051924;28;20104;-75
2022/06/06 02:13:28;;;;;;;53.03;27.88;;;15.70;95.50;;;;;;5048909;28;20650;-76
2022/06/06 02:15:55;;;;;;;42.55;24.75;;;15.70;95.60;;;;;;5050696;28;20021;-77
2022/06/06 02:18:22;;;;;;;46.95;26.33;;;15.80;95.70;;;;;;5049742;28;20025;-78
2022/06/06 02:20:48;;;;;;;44.72;25.95;;;15.80;95.60;;;;;;5049850;28;20102;-77
2022/06/06 02:23:14;;;;;;;47.13;25.23;;;15.80;95.70;;;;;;5051617;28;20067;-77
2022/06/06 02:25:41;;;;;;;28.33;18.10;;;15.70;95.60;;;;;;5053972;28;20455;-77
2022/06/06 02:28:07;;;;;;;51.10;27.45;;;15.70;95.20;;;;;;5052971;28;20017;-77
2022/06/06 02:30:35;;;;;;;50.25;28.40;;;15.70;95.50;;;;;;5054230;28;20463;-77
2022/06/06 02:33:01;;;;;;;46.17;25.63;;;15.80;95.50;;;;;;5053711;28;20048;-77
2022/06/06 02:35:37;;;;;;;45.55;26.40;;;15.90;95.40;;;;;;5052942;28;20053;-78
2022/06/06 02:38:03;;;;;;;39.65;23.52;;;15.90;95.50;;;;;;5048817;28;20021;-77
2022/06/06 02:40:30;;;;;;;48.20;25.70;;;16.00;95.50;;;;;;5053594;28;20036;-78
2022/06/06 02:42:57;;;;;;;48.75;25.60;;;16.00;95.50;;;;;;5055965;28;20045;-77
2022/06/06 02:45:23;;;;;;;45.35;24.23;;;16.00;95.60;;;;;;5053193;28;20021;-75
2022/06/06 02:47:52;;;;;;;46.63;25.92;;;16.00;95.40;;;;;;5054288;28;20025;-77
2022/06/06 02:50:21;;;;;;;56.70;30.48;;;16.10;95.50;;;;;;5032324;28;20044;-76
2022/06/06 02:52:46;;;;;;;52.03;28.60;;;16.10;95.40;;;;;;5046796;28;20479;-75
2022/06/06 02:55:14;;;;;;;51.78;27.23;;;16.10;95.40;;;;;;5052010;28;20021;-77
2022/06/06 02:57:42;;;;;;;63.95;33.33;;;16.00;95.40;;;;;;5051616;28;20039;-76
2022/06/06 03:00:11;;;;;;;58.08;32.90;;;16.10;95.30;;;;;;5053741;28;20091;-76
2022/06/06 03:02:36;;;;;;;46.35;26.88;;;16.10;95.00;;;;;;5054344;28;20053;-77
2022/06/06 03:05:08;;;;;;;60.28;33.92;;;16.10;94.70;;;;;;5055155;28;20064;-77
2022/06/06 03:08:05;;;;;;;57.10;32.05;;;16.10;95.30;;;;;;5056418;28;20055;-78
2022/06/06 03:11:02;;;;;;;52.20;28.25;;;16.10;95.30;;;;;;5056470;28;20025;-77
2022/06/06 03:13:53;;;;;;;62.67;33.33;;;16.10;95.30;;;;;;5053585;28;20045;-77
2022/06/06 03:22:43;;;;;;;62.88;33.60;;;16.10;95.40;;;;;;5053631;28;20118;-77
2022/06/06 03:25:17;;;;;;;59.65;32.00;;;16.10;95.60;;;;;;5052638;28;20075;-77
2022/06/06 03:27:51;;;;;;;51.53;28.05;;;16.10;95.30;;;;;;5052264;28;20020;-77
2022/06/06 03:30:38;;;;;;;62.22;33.42;;;16.10;95.10;;;;;;5041946;28;20379;-77
2022/06/06 03:33:22;;;;;;;55.63;29.52;;;16.10;95.20;;;;;;5053362;28;20099;-78
2022/06/06 03:36:02;;;;;;;53.50;29.35;;;16.10;95.30;;;;;;5052877;28;20033;-76
2022/06/06 03:39:12;;;;;;;59.70;30.90;;;16.10;95.30;;;;;;5052387;28;20021;-75
2022/06/06 03:42:06;;;;;;;61.78;33.25;;;16.20;95.30;;;;;;5052642;28;20391;-76
2022/06/06 03:45:04;;;;;;;72.32;37.25;;;16.20;95.50;;;;;;5051345;28;20040;-75
2022/06/06 03:47:48;;;;;;;60.50;34.10;;;16.20;95.50;;;;;;5044291;28;20087;-76
2022/06/06 03:50:25;;;;;;;71.78;35.30;;;16.20;95.80;;;;;;5052260;28;20021;-75
2022/06/06 03:53:00;;;;;;;62.70;33.90;;;16.20;95.50;;;;;;5053623;28;20029;-77
2022/06/06 03:55:42;;;;;;;55.33;29.50;;;16.10;95.70;;;;;;5052255;28;20029;-77
2022/06/06 03:58:14;;;;;;;63.70;31.95;;;16.10;95.80;;;;;;5052667;28;20243;-77
2022/06/06 04:00:41;;;;;;;55.20;30.02;;;16.10;95.80;;;;;;5051677;28;20117;-76
2022/06/06 04:03:10;;;;;;;62.80;33.20;;;16.10;95.90;;;;;;5051685;28;20470;-77
2022/06/06 04:05:37;;;;;;;60.35;31.77;;;16.10;95.80;;;;;;5052053;28;20452;-76
2022/06/06 04:08:03;;;;;;;47.85;25.10;;;16.20;95.90;;;;;;5052649;28;20057;-78
2022/06/06 04:10:54;;;;;;;52.25;28.85;;;16.20;95.70;;;;;;5051509;28;20052;-77
2022/06/06 04:13:29;;;;;;;50.83;26.55;;;16.20;95.60;;;;;;4980999;28;20055;-78
2022/06/06 04:16:04;;;;;;;52.45;28.45;;;16.10;95.70;;;;;;5049604;28;20025;-77
2022/06/06 04:18:35;;;;;;;56.63;29.23;;;16.20;95.50;;;;;;5050374;28;20361;-80
2022/06/06 04:21:16;;;;;;;61.10;30.83;;;16.20;95.80;;;;;;5050249;28;20036;-78
2022/06/06 04:24:13;;;;;;;49.03;26.67;;;16.20;95.80;;;;;;5052548;28;20100;-78
2022/06/06 04:26:52;;;;;;;48.78;26.88;;;16.10;95.90;;;;;;5054525;28;20048;-78
2022/06/06 04:29:30;;;;;;;56.95;32.70;;;16.20;95.60;;;;;;5054311;28;20052;-79
2022/06/06 04:32:08;;;;;;;66.30;37.42;;;16.10;95.70;;;;;;5056738;28;20041;-77
2022/06/06 04:34:38;;;;;;;56.13;32.90;;;16.10;95.70;;;;;;5066465;28;20053;-78
2022/06/06 04:37:10;;;;;;;;;;;16.10;95.20;;;;;;5057200;28;20063;-75
2022/06/06 04:39:52;;;;;;;61.67;36.53;;;16.00;95.00;;;;;;5053084;28;19905;-78
2022/06/06 04:42:42;;;;;;;70.63;40.38;;;16.10;95.00;;;;;;5050923;28;20031;-77
2022/06/06 04:45:28;;;;;;;73.47;41.05;;;16.10;94.80;;;;;;5051685;28;20086;-76
2022/06/06 04:47:56;;;;;;;54.90;33.38;;;16.00;94.20;;;;;;5044012;28;20021;-77
2022/06/06 04:50:22;;;;;;;62.80;39.15;;;16.00;94.40;;;;;;5051288;28;20503;-75
2022/06/06 04:52:53;;;;;;;56.20;36.67;;;15.90;94.60;;;;;;5051446;28;20039;-77
2022/06/06 04:55:20;;;;;;;63.17;39.78;;;15.90;94.30;;;;;;5051634;28;20452;-76
2022/06/06 04:57:51;;;;;;;61.28;37.17;;;15.90;94.50;;;;;;5047216;28;20059;-76
2022/06/06 05:00:17;;;;;;;57.47;34.90;;;15.90;94.50;;;;;;5050752;28;20021;-78
2022/06/06 05:02:43;;;;;;;48.85;31.42;;;15.80;94.50;;;;;;5051668;28;20550;-77
2022/06/06 05:05:10;;;;;;;52.63;35.53;;;15.80;94.10;;;;;;5053125;28;20112;-77
2022/06/06 05:08:07;;;;;;;52.17;34.10;;;15.80;94.10;;;;;;5051369;28;20067;-77
2022/06/06 05:11:08;;;;;;;53.67;34.63;;;15.80;94.20;;;;;;5053822;28;20017;-76
2022/06/06 05:13:58;;;;;;;58.78;36.38;;;15.80;94.20;;;;;;5051077;28;20017;-76
2022/06/06 05:16:50;;;;;;;53.50;33.72;;;15.70;94.10;;;;;;5051935;28;20029;-75
2022/06/06 05:19:15;;;;;;;58.38;36.30;;;15.70;93.90;;;;;;5044026;28;20528;-78
2022/06/06 05:21:50;;;;;;;33.03;23.13;;;15.70;94.00;;;;;;5049588;28;20032;-75
2022/06/06 05:24:40;;;;;;;56.08;35.42;;;15.70;93.20;;;;;;5047329;28;20120;-77
2022/06/06 05:27:25;;;;;;;;;;;15.70;93.90;;;;;;5048929;28;20362;-76
2022/06/06 05:29:55;;;;;;;46.40;30.23;;;15.80;93.40;;;;;;5050113;28;19904;-75
2022/06/06 05:32:37;;;;;;;45.85;34.33;;;15.80;93.50;;;;;;5049538;28;20033;-74
2022/06/06 05:35:40;;;;;;;41.90;29.45;;;15.80;93.50;;;;;;5049631;28;20131;-74
2022/06/06 05:38:34;;;;;;;40.47;26.05;;;15.80;93.30;;;;;;5049503;28;20021;-76
2022/06/06 05:41:48;;;;;;;39.53;27.75;;;15.70;92.90;;;;;;5042169;28;20028;-76
2022/06/06 05:44:39;;;;;;;41.97;28.45;;;15.70;92.70;;;;;;4949519;28;20035;-76
2022/06/06 05:47:23;;;;;;;36.17;24.50;;;15.70;92.70;;;;;;4949410;29;20027;-76
2022/06/06 05:49:49;;;;;;;34.45;24.27;;;15.70;92.50;;;;;;5019280;28;20037;-76
2022/06/06 05:52:42;;;;;;;33.40;22.08;;;15.80;92.30;;;;;;5049777;28;20377;-76
2022/06/06 05:55:39;;;;;;;28.27;19.40;;;15.80;92.10;;;;;;5041493;28;20468;-76
2022/06/06 05:58:23;;;;;;;29.10;18.45;;;15.90;91.90;;;;;;5048560;28;20091;-76
2022/06/06 06:00:55;;;;;;;25.88;16.52;;;15.90;91.60;;;;;;5049896;28;20053;-77
2022/06/06 06:03:51;;;;;;;23.60;16.80;;;16.00;91.20;;;;;;5047636;28;20438;-75
2022/06/06 06:06:33;;;;;;;20.55;15.68;;;16.10;90.80;;;;;;5049179;28;20048;-75
2022/06/06 06:09:15;;;;;;;23.58;17.02;;;16.10;90.80;;;;;;5049320;28;20021;-75
2022/06/06 06:11:56;;;;;;;25.05;16.92;;;16.30;90.60;;;;;;5049282;28;20398;-76
2022/06/06 06:14:22;;;;;;;23.02;13.18;;;16.40;90.10;;;;;;5049536;28;20028;-77
2022/06/06 06:16:52;;;;;;;24.65;16.20;;;16.40;89.00;;;;;;5043789;28;20021;-75
2022/06/06 06:19:22;;;;;;;21.45;13.75;;;16.50;88.60;;;;;;5043556;28;20412;-75
2022/06/06 06:21:55;;;;;;;14.03;9.67;;;16.50;88.00;;;;;;5040995;28;20024;-77
2022/06/06 06:24:31;;;;;;;20.85;13.82;;;16.50;88.10;;;;;;5042674;28;20447;-74
2022/06/06 06:27:01;;;;;;;20.92;13.57;;;16.60;87.70;;;;;;5039425;28;20029;-74
2022/06/06 06:29:26;;;;;;;;;;;16.60;86.50;;;;;;5045915;28;20028;-76
2022/06/06 06:32:23;;;;;;;19.10;14.00;;;16.60;86.30;;;;;;5039590;28;19962;-74
2022/06/06 06:34:53;;;;;;;19.08;14.18;;;16.40;87.10;;;;;;5041981;28;20468;-74
2022/06/06 06:37:25;;;;;;;16.30;12.07;;;16.30;88.00;;;;;;5042457;28;20124;-76
2022/06/06 06:40:17;;;;;;;19.65;12.68;;;16.30;87.80;;;;;;5039554;28;20029;-77
2022/06/06 06:43:05;;;;;;;16.52;9.55;;;16.40;87.90;;;;;;5038645;28;20104;-75
2022/06/06 06:45:44;;;;;;;14.63;10.30;;;16.50;86.20;;;;;;5042474;28;20080;-74
2022/06/06 06:48:13;;;;;;;17.57;10.13;;;16.40;85.90;;;;;;5039565;28;20079;-75
2022/06/06 06:50:54;;;;;;;12.68;8.68;;;16.40;85.90;;;;;;5039028;28;20021;-74
2022/06/06 06:53:53;;;;;;;14.63;8.13;;;16.30;86.40;;;;;;5040136;28;20055;-76
2022/06/06 06:56:19;;;;;;;20.55;12.85;;;16.40;86.60;;;;;;5048184;28;20036;-75
2022/06/06 06:59:00;;;;;;;18.70;11.52;;;16.50;87.20;;;;;;5055182;28;20017;-74
2022/06/06 07:08:32;;;;;;;14.23;9.40;;;16.80;84.80;;;;;;5041581;28;20514;-73
2022/06/06 07:11:20;;;;;;;;;;;16.80;83.60;;;;;;5048295;28;20025;-76
2022/06/06 07:14:16;;;;;;;15.23;9.77;;;16.80;83.90;;;;;;5053233;28;19905;-74
2022/06/06 07:16:42;;;;;;;14.60;9.68;;;16.90;83.50;;;;;;5051678;28;20025;-74
2022/06/06 07:19:23;;;;;;;15.10;10.55;;;16.90;84.50;;;;;;5048139;28;20116;-75
2022/06/06 07:21:51;;;;;;;14.13;9.05;;;17.10;83.50;;;;;;5046696;28;20041;-76
2022/06/06 07:24:20;;;;;;;13.77;10.48;;;17.20;83.40;;;;;;5044499;28;20028;-76
2022/06/06 07:26:47;;;;;;;16.83;11.93;;;17.20;82.40;;;;;;5045332;28;20107;-76
2022/06/06 07:29:20;;;;;;;14.27;8.35;;;17.20;81.70;;;;;;5042165;28;20471;-76
2022/06/06 07:31:50;;;;;;;13.48;9.82;;;17.30;81.90;;;;;;5043446;28;20033;-77
2022/06/06 07:34:45;;;;;;;10.75;7.20;;;17.40;81.90;;;;;;5042759;28;20041;-79
2022/06/06 07:37:41;;;;;;;14.98;8.15;;;17.50;81.60;;;;;;5048710;28;20054;-75
2022/06/06 07:40:36;;;;;;;12.55;8.77;;;17.60;78.40;;;;;;5041421;28;20025;-75
2022/06/06 07:43:19;;;;;;;12.23;8.98;;;17.70;78.00;;;;;;5049837;28;20047;-75
2022/06/06 07:46:07;;;;;;;12.98;6.93;;;17.70;78.70;;;;;;5050796;28;20025;-75
2022/06/06 07:49:04;;;;;;;14.07;6.85;;;17.70;75.90;;;;;;5051485;28;20028;-74
2022/06/06 07:51:58;;;;;;;13.20;6.40;;;17.70;75.10;;;;;;5050646;28;20047;-73
2022/06/06 07:54:31;;;;;;;17.45;5.18;;;17.70;76.10;;;;;;5043081;28;20017;-75
2022/06/06 07:57:36;;;;;;;7.05;4.95;;;17.80;76.30;;;;;;5052177;28;20052;-75
2022/06/06 08:00:07;;;;;;;9.52;4.43;;;17.90;73.30;;;;;;5038889;28;20033;-76
2022/06/06 08:02:49;;;;;;;11.18;4.90;;;18.00;72.00;;;;;;5042043;28;20017;-79
2022/06/06 08:05:36;;;;;;;8.18;4.25;;;18.10;72.00;;;;;;5048618;28;20044;-77
2022/06/06 08:08:24;;;;;;;6.18;3.17;;;18.10;71.50;;;;;;5044527;28;20029;-74
2022/06/06 08:10:50;;;;;;;6.35;4.10;;;17.90;70.90;;;;;;5048949;28;20053;-75
2022/06/06 08:13:23;;;;;;;7.75;3.95;;;17.90;71.00;;;;;;5050744;28;20057;-77
2022/06/06 08:16:14;;;;;;;7.53;3.20;;;17.90;71.20;;;;;;5050956;28;20025;-76
2022/06/06 08:18:58;;;;;;;6.88;2.88;;;17.80;70.40;;;;;;5047930;28;20053;-77
2022/06/06 08:21:33;;;;;;;9.00;3.00;;;17.80;72.60;;;;;;5048413;28;20107;-77
2022/06/06 08:24:02;;;;;;;9.70;3.40;;;17.80;70.60;;;;;;5047338;28;20095;-76
2022/06/06 08:26:28;;;;;;;6.10;2.60;;;17.80;71.70;;;;;;5051487;28;20029;-75
2022/06/06 08:28:54;;;;;;;5.72;2.45;;;17.70;70.60;;;;;;5050685;28;20095;-76
2022/06/06 08:31:21;;;;;;;6.03;2.03;;;17.60;71.40;;;;;;5051067;28;20032;-75
2022/06/06 08:33:47;;;;;;;5.53;2.33;;;17.70;70.70;;;;;;5051153;28;20056;-75
2022/06/06 08:36:47;;;;;;;6.30;2.05;;;17.80;70.70;;;;;;5051241;28;20045;-77
2022/06/06 08:39:37;;;;;;;7.57;3.43;;;17.80;69.50;;;;;;5047553;28;20021;-76
2022/06/06 08:42:08;;;;;;;6.60;2.33;;;17.60;70.40;;;;;;5040660;28;20021;-77
2022/06/06 08:44:46;;;;;;;6.30;2.55;;;17.50;69.50;;;;;;5048910;28;20040;-76
2022/06/06 08:47:28;;;;;;;4.13;2.40;;;17.30;70.60;;;;;;5029735;28;20088;-75
2022/06/06 08:53:46;;;;;;;7.38;3.40;;;17.70;71.80;;;;;;5040020;28;20058;-76
2022/06/06 08:56:46;;;;;;;4.47;1.80;;;17.90;69.60;;;;;;5048624;28;20430;-76
2022/06/06 08:59:18;;;;;;;5.78;1.90;;;18.10;68.60;;;;;;5048537;28;20029;-77
2022/06/06 09:02:15;;;;;;;3.75;1.80;;;18.20;66.70;;;;;;5048645;28;20047;-76
2022/06/06 09:05:03;;;;;;;4.43;1.85;;;18.20;67.40;;;;;;5050004;28;20534;-74
2022/06/06 09:07:35;;;;;;;5.13;2.28;;;18.20;67.30;;;;;;5050337;28;20032;-76
2022/06/06 09:10:42;;;;;;;7.53;2.15;;;18.40;67.10;;;;;;5050848;28;20370;-77
2022/06/06 09:13:49;;;;;;;5.10;1.55;;;18.70;67.10;;;;;;4976128;28;20039;-76
2022/06/06 09:16:33;;;;;;;5.43;1.45;;;18.90;66.00;;;;;;5046106;28;20092;-76
2022/06/06 09:19:27;;;;;;;6.72;2.13;;;19.20;65.90;;;;;;5049771;28;20033;-75
2022/06/06 09:22:25;;;;;;;9.13;1.85;;;19.40;64.50;;;;;;5047780;28;20049;-77
2022/06/06 09:25:28;;;;;;;5.05;1.83;;;19.40;64.40;;;;;;5043308;28;20067;-77
2022/06/06 09:28:16;;;;;;;5.85;1.40;;;19.40;64.70;;;;;;5053021;28;20025;-76
2022/06/06 09:31:24;;;;;;;5.60;1.80;;;19.50;64.00;;;;;;5049009;28;20033;-74
2022/06/06 09:34:27;;;;;;;5.10;1.52;;;19.60;62.60;;;;;;5030740;28;20136;-74
2022/06/06 09:37:25;;;;;;;2.90;1.30;;;19.70;62.40;;;;;;5049879;28;20029;-75
2022/06/06 09:40:12;;;;;;;6.22;1.35;;;19.70;62.60;;;;;;5050278;28;20029;-74
2022/06/06 09:42:43;;;;;;;5.70;2.15;;;19.70;61.50;;;;;;5049897;28;20036;-75
2022/06/06 09:45:33;;;;;;;6.18;1.63;;;19.90;61.50;;;;;;5048505;28;20029;-76
2022/06/06 09:48:17;;;;;;;4.97;1.70;;;20.10;60.70;;;;;;5039426;28;20395;-76
2022/06/06 09:51:07;;;;;;;7.47;2.15;;;20.30;59.60;;;;;;5049354;28;20053;-77
2022/06/06 09:53:45;;;;;;;2.95;1.50;;;20.20;58.70;;;;;;5049246;28;20029;-75
2022/06/06 09:59:32;;;;;;;6.15;1.90;;;20.20;61.90;;;;;;5048729;28;20040;-75
2022/06/06 10:02:22;;;;;;;3.67;1.50;;;20.60;60.70;;;;;;5049295;28;20093;-75
2022/06/06 10:04:50;;;;;;;;;;;20.90;60.10;;;;;;5051084;28;20029;-78
2022/06/06 10:07:32;;;;;;;4.78;2.03;;;20.80;59.30;;;;;;5049153;28;19908;-75
2022/06/06 10:10:10;;;;;;;11.02;2.10;;;20.70;59.50;;;;;;5030234;28;20040;-75
2022/06/06 10:13:09;;;;;;;3.72;1.58;;;20.60;59.50;;;;;;5044896;28;20183;-76
2022/06/06 10:16:13;;;;;;;5.05;1.55;;;20.70;59.70;;;;;;5048986;28;20033;-76
2022/06/06 10:18:58;;;;;;;4.53;1.80;;;20.80;58.80;;;;;;5048943;28;20507;-75
2022/06/06 10:21:48;;;;;;;4.57;1.75;;;20.60;58.80;;;;;;5047918;28;20021;-76
2022/06/06 10:24:51;;;;;;;5.65;2.15;;;20.50;61.30;;;;;;5038230;28;20075;-75
2022/06/06 10:27:40;;;;;;;7.80;3.00;;;20.40;60.70;;;;;;5030435;28;20037;-75
2022/06/06 10:30:14;;;;;;;4.40;2.13;;;20.20;61.10;;;;;;5047954;28;20048;-75
2022/06/06 10:33:07;;;;;;;2.40;1.55;;;20.00;61.50;;;;;;5047144;28;20040;-74
2022/06/06 10:36:11;;;;;;;4.70;2.03;;;19.80;62.40;;;;;;5047887;28;20092;-74
2022/06/06 10:38:39;;;;;;;4.07;1.95;;;19.50;62.60;;;;;;5047622;28;20021;-73
2022/06/06 10:41:46;;;;;;;4.13;2.00;;;19.50;63.30;;;;;;5047256;28;20025;-73
2022/06/06 10:44:51;;;;;;;4.28;1.98;;;19.40;64.30;;;;;;5047448;28;20021;-75
2022/06/06 10:47:46;;;;;;;3.55;1.70;;;19.40;65.00;;;;;;5008461;28;20060;-74
2022/06/06 10:51:36;;;;;;;4.70;2.55;;;19.60;62.70;;;;;;5041376;28;20025;-73
2022/06/06 10:53:39;;;;;;;4.68;1.98;;;19.70;61.90;;;;;;5050623;28;20068;-74
2022/06/06 10:56:33;;;;;;;18.23;2.80;;;19.90;61.50;;;;;;5049854;28;20040;-75
2022/06/06 10:59:15;;;;;;;4.20;1.80;;;20.00;61.30;;;;;;5050910;28;20079;-74
2022/06/06 11:02:01;;;;;;;5.35;2.30;;;20.10;61.80;;;;;;5030871;28;20120;-74
2022/06/06 11:04:39;;;;;;;5.75;2.25;;;20.10;62.10;;;;;;5048748;28;20029;-75
2022/06/06 11:07:18;;;;;;;5.03;2.10;;;20.00;60.70;;;;;;5052444;28;20020;-74
2022/06/06 11:09:57;;;;;;;5.75;1.88;;;19.90;60.00;;;;;;5052286;28;20056;-73
2022/06/06 11:12:44;;;;;;;3.53;2.20;;;19.70;62.00;;;;;;5051919;28;20048;-74
2022/06/06 11:15:10;;;;;;;5.20;2.83;;;19.60;62.30;;;;;;5052408;28;20013;-75
2022/06/06 11:18:07;;;;;;;8.15;3.13;;;19.50;62.90;;;;;;5050727;28;20032;-74
2022/06/06 11:20:33;;;;;;;9.32;3.17;;;19.50;63.20;;;;;;5048716;28;20017;-76
2022/06/06 11:23:24;;;;;;;5.68;2.80;;;19.50;63.80;;;;;;5052761;28;20045;-75
2022/06/06 11:26:08;;;;;;;3.80;2.20;;;20.00;64.10;;;;;;5049778;28;20024;-73
2022/06/06 11:28:52;;;;;;;6.22;2.50;;;20.60;62.60;;;;;;5051536;28;20436;-74
2022/06/06 11:31:35;;;;;;;3.58;1.80;;;21.10;60.30;;;;;;5050444;28;20491;-75
2022/06/06 11:34:44;;;;;;;5.18;2.13;;;21.40;57.90;;;;;;5051532;28;20144;-75
2022/06/06 11:37:49;;;;;;;2.78;1.77;;;21.30;57.10;;;;;;5046371;28;20029;-75
2022/06/06 11:40:35;;;;;;;3.50;1.90;;;21.20;57.90;;;;;;5051290;28;20017;-74
2022/06/06 11:43:29;;;;;;;3.88;1.90;;;21.10;57.60;;;;;;5052165;28;20762;-76
2022/06/06 11:46:15;;;;;;;6.50;1.33;;;20.90;58.50;;;;;;5050407;28;20021;-74
2022/06/06 11:48:57;;;;;;;4.65;2.05;;;20.90;60.00;;;;;;5011236;28;20037;-75
2022/06/06 11:51:22;;;;;;;11.80;2.05;;;21.00;58.40;;;;;;5051253;28;20044;-75
2022/06/06 11:54:06;;;;;;;2.58;1.60;;;20.90;58.10;;;;;;5052555;28;20506;-74
2022/06/06 11:56:56;;;;;;;3.80;1.40;;;20.70;58.60;;;;;;5051884;28;20021;-73
2022/06/06 11:59:50;;;;;;;5.37;1.60;;;20.60;60.10;;;;;;5054824;28;20036;-74
2022/06/06 12:02:27;;;;;;;5.75;1.58;;;20.50;59.20;;;;;;5053249;28;20036;-73
2022/06/06 12:05:23;;;;;;;5.20;1.80;;;20.20;60.80;;;;;;5050998;28;20040;-73
2022/06/06 12:07:52;;;;;;;3.63;2.05;;;20.00;62.90;;;;;;5042843;28;20025;-75
2022/06/06 12:10:27;;;;;;;3.70;2.13;;;19.80;64.50;;;;;;5051385;28;20032;-73
2022/06/06 12:13:29;;;;;;;4.28;2.17;;;19.70;64.00;;;;;;5041742;28;20025;-74
2022/06/06 12:16:04;;;;;;;4.35;1.85;;;19.50;65.40;;;;;;5050036;28;20479;-74
2022/06/06 12:18:54;;;;;;;5.45;2.28;;;19.50;67.40;;;;;;5051309;28;20082;-75
2022/06/06 12:21:21;;;;;;;5.80;2.30;;;19.40;67.70;;;;;;5051584;28;20086;-74
2022/06/06 12:24:34;;;;;;;3.97;1.65;;;19.30;66.60;;;;;;5051849;28;20131;-74
2022/06/06 12:27:22;;;;;;;5.15;2.20;;;19.60;66.30;;;;;;5050312;28;20107;-73
2022/06/06 12:30:08;;;;;;;5.00;1.90;;;19.80;65.60;;;;;;5031313;28;20022;-74
2022/06/06 12:32:58;;;;;;;4.95;2.20;;;19.90;64.40;;;;;;5049582;28;20033;-74
2022/06/06 12:35:55;;;;;;;6.03;2.10;;;19.80;64.10;;;;;;5051180;28;20470;-75
2022/06/06 12:38:48;;;;;;;7.20;2.90;;;19.40;67.20;;;;;;5050295;28;20053;-73
2022/06/06 12:41:33;;;;;;;5.47;2.78;;;19.00;70.30;;;;;;5041360;28;20067;-74
2022/06/06 12:44:04;;;;;;;5.70;2.25;;;18.70;71.30;;;;;;5041998;28;20068;-76
2022/06/06 12:46:44;;;;;;;5.45;2.67;;;18.50;72.90;;;;;;5045165;28;20360;-76
2022/06/06 12:49:34;;;;;;;6.35;2.72;;;18.20;74.10;;;;;;5041824;28;20029;-74
2022/06/06 12:52:19;;;;;;;5.18;2.92;;;18.00;75.70;;;;;;5051112;28;20093;-74
2022/06/06 12:58:22;;;;;;;6.57;2.85;;;17.70;78.10;;;;;;5050540;28;20029;-74
2022/06/06 13:04:07;;;;;;;4.05;2.00;;;17.80;79.50;;;;;;5049751;28;20060;-73
2022/06/06 13:07:10;;;;;;;4.57;1.90;;;17.80;79.10;;;;;;5049772;28;20021;-75
2022/06/06 13:10:28;;;;;;;3.70;1.63;;;17.90;78.80;;;;;;5049998;28;20040;-74
2022/06/06 13:13:12;;;;;;;4.22;1.80;;;17.90;77.80;;;;;;5032834;28;20568;-74
2022/06/06 13:16:08;;;;;;;4.35;2.05;;;18.00;78.50;;;;;;5049061;28;20120;-73
2022/06/06 13:18:52;;;;;;;5.72;2.53;;;18.10;77.50;;;;;;5032538;28;20040;-74
2022/06/06 13:21:42;;;;;;;4.50;2.15;;;18.10;77.60;;;;;;5050126;28;20115;-74
2022/06/06 13:24:07;;;;;;;5.32;1.98;;;18.10;76.60;;;;;;5050202;28;20036;-75
2022/06/06 13:26:50;;;;;;;3.03;1.63;;;18.10;77.00;;;;;;5048324;28;20109;-72
2022/06/06 13:29:34;;;;;;;4.15;1.83;;;18.20;75.90;;;;;;5049596;28;20017;-74
2022/06/06 13:32:05;;;;;;;1.80;1.15;;;18.40;74.80;;;;;;5047734;28;20392;-73
2022/06/06 13:34:40;;;;;;;4.80;2.10;;;18.50;74.00;;;;;;5048331;28;20448;-75
2022/06/06 13:37:30;;;;;;;3.38;1.40;;;18.50;72.80;;;;;;5048910;28;20033;-75
2022/06/06 13:40:20;;;;;;;3.88;1.50;;;18.60;72.50;;;;;;5044699;28;20429;-75
2022/06/06 13:42:59;;;;;;;3.50;1.63;;;18.70;71.80;;;;;;5048744;28;20114;-73
2022/06/06 13:45:48;;;;;;;2.90;1.53;;;18.70;71.30;;;;;;5045377;28;20029;-73
2022/06/06 13:48:44;;;;;;;2.72;1.38;;;18.60;70.80;;;;;;5049787;28;20079;-74
2022/06/06 13:51:33;;;;;;;4.82;1.58;;;18.60;71.40;;;;;;5040223;28;20033;-73
2022/06/06 13:54:03;;;;;;;4.13;1.40;;;18.60;71.10;;;;;;5048149;28;20033;-74
2022/06/06 13:57:03;;;;;;;5.53;1.83;;;18.60;71.30;;;;;;5041083;28;20029;-74
2022/06/06 13:59:38;;;;;;;5.28;1.85;;;18.50;71.70;;;;;;5042567;28;20013;-73
2022/06/06 14:02:14;;;;;;;3.00;1.70;;;18.50;71.40;;;;;;5042834;28;20026;-75
2022/06/06 14:04:57;;;;;;;4.15;2.13;;;18.50;71.70;;;;;;5043916;28;20013;-74
2022/06/06 14:07:51;;;;;;;5.70;1.80;;;18.50;71.80;;;;;;5038139;28;20021;-74
2022/06/06 14:10:19;;;;;;;5.57;2.03;;;18.60;72.00;;;;;;5041557;28;20032;-73
2022/06/06 14:13:09;;;;;;;4.22;1.63;;;18.50;71.90;;;;;;5036214;28;20030;-74
2022/06/06 14:15:46;;;;;;;5.97;2.03;;;18.50;72.60;;;;;;5043359;28;20036;-74